Time;durP1;ratioP1;P1;durP2;ratioP2;P2;SDS_P1;SDS_P2;PMS_P1;PMS_P2;Temp;Humidity;BMP_temperature;BMP_pressure;BME280_temperature;BME280_humidity;BME280_pressure;Samples;Min_cycle;Max_cycle;Signal;HPM_P1;HPM_P2
2022/04/25 00:01:28;;;;;;;6.93;3.03;;;;;;;13.22;61.78;98695.91;4441875;32;32454;-86
2022/04/25 00:03:58;;;;;;;7.72;3.47;;;;;;;13.26;61.50;98694.31;4429430;32;33165;-86
2022/04/25 00:06:26;;;;;;;4.95;2.70;;;;;;;13.35;61.08;98692.81;4441974;32;32355;-86
2022/04/25 00:08:54;;;;;;;7.85;3.00;;;;;;;13.26;61.25;98693.47;4428306;32;31806;-86
2022/04/25 00:11:22;;;;;;;6.68;3.15;;;;;;;13.19;61.49;98693.66;4427939;32;32880;-86
2022/04/25 00:13:49;;;;;;;8.85;3.25;;;;;;;13.27;61.35;98697.91;4427505;32;34701;-86
2022/04/25 00:16:18;;;;;;;7.15;3.22;;;;;;;13.23;61.18;98694.81;4427433;32;33173;-86
2022/04/25 00:18:48;;;;;;;6.45;2.92;;;;;;;13.12;61.48;98691.03;4440549;32;33155;-86
2022/04/25 00:21:16;;;;;;;9.60;3.47;;;;;;;13.14;61.38;98691.59;4427789;32;32181;-86
2022/04/25 00:23:44;;;;;;;8.48;3.08;;;;;;;13.22;61.08;98690.37;4440244;32;35331;-86
2022/04/25 00:26:12;;;;;;;7.80;3.00;;;;;;;13.15;61.09;98684.19;4440211;32;33945;-86
2022/04/25 00:28:39;;;;;;;9.13;3.50;;;;;;;13.22;60.70;98681.28;4440444;32;31796;-86
2022/04/25 00:31:07;;;;;;;8.77;2.83;;;;;;;13.16;60.88;98674.87;4427699;32;32339;-86
2022/04/25 00:33:35;;;;;;;6.82;2.90;;;;;;;13.01;61.16;98672.66;4440124;32;32841;-86
2022/04/25 00:36:03;;;;;;;5.78;3.00;;;;;;;13.02;60.98;98679.00;4439855;32;33419;-86
2022/04/25 00:38:33;;;;;;;6.25;3.03;;;;;;;12.97;60.87;98676.19;4439885;32;33917;-86
2022/04/25 00:41:05;;;;;;;8.27;2.90;;;;;;;12.96;60.85;98680.03;4440367;32;34635;-86
2022/04/25 00:43:32;;;;;;;6.43;3.10;;;;;;;12.89;61.04;98680.19;4439583;32;34009;-86
2022/04/25 00:46:00;;;;;;;7.07;3.22;;;;;;;12.81;61.22;98681.41;4439530;32;33336;-86
2022/04/25 00:48:29;;;;;;;5.35;2.92;;;;;;;12.83;61.11;98676.50;4439711;32;33117;-86
2022/04/25 00:50:56;;;;;;;7.65;3.37;;;;;;;12.82;61.06;98679.50;4439517;32;34399;-86
2022/04/25 00:53:24;;;;;;;9.07;2.85;;;;;;;12.65;61.46;98679.47;4439746;32;33472;-86
2022/04/25 00:55:52;;;;;;;7.90;2.70;;;;;;;12.74;61.37;98685.41;4440601;32;31970;-84
2022/04/25 00:58:19;;;;;;;7.32;2.83;;;;;;;12.61;61.77;98688.47;4441720;32;32637;-84
2022/04/25 01:00:49;;;;;;;5.10;2.60;;;;;;;12.49;62.14;98685.75;4429110;32;33140;-84
2022/04/25 01:03:18;;;;;;;7.72;3.03;;;;;;;12.43;62.47;98682.06;4441601;32;33959;-84
2022/04/25 01:05:46;;;;;;;6.03;2.87;;;;;;;12.45;62.63;98684.59;4428916;32;33054;-84
2022/04/25 01:08:13;;;;;;;6.28;2.75;;;;;;;12.42;62.92;98690.56;4441636;32;34056;-84
2022/04/25 01:10:43;;;;;;;6.62;2.60;;;;;;;12.50;62.61;98692.94;4441558;32;34207;-84
2022/04/25 01:13:14;;;;;;;5.62;3.05;;;;;;;12.42;63.36;98690.56;4454113;32;35136;-84
2022/04/25 01:15:41;;;;;;;6.25;2.28;;;;;;;12.25;64.48;98689.72;4441664;32;33951;-84
2022/04/25 01:18:11;;;;;;;6.53;2.42;;;;;;;12.25;64.43;98692.47;4428883;32;31826;-84
2022/04/25 01:20:40;;;;;;;10.63;2.95;;;;;;;12.30;64.72;98693.41;4441216;32;33843;-84
2022/04/25 01:28:54;;;;;;;8.35;2.92;;;;;;;12.67;62.85;98692.97;4443455;32;32711;-84
2022/04/25 01:31:24;;;;;;;7.72;3.03;;;;;;;12.96;61.57;98697.37;4441466;32;33821;-84
2022/04/25 01:33:53;;;;;;;9.48;2.60;;;;;;;13.10;61.13;98693.19;4441686;32;34279;-84
2022/04/25 01:36:24;;;;;;;8.27;2.80;;;;;;;13.31;60.15;98693.56;4441311;32;32147;-84
2022/04/25 01:38:52;;;;;;;5.68;2.42;;;;;;;13.37;59.79;98687.88;4441729;32;33663;-85
2022/04/25 01:41:21;;;;;;;8.15;2.75;;;;;;;13.41;59.21;98689.06;4441442;32;32257;-85
2022/04/25 01:43:48;;;;;;;9.23;2.72;;;;;;;13.57;58.56;98686.53;4428769;32;32954;-84
2022/04/25 01:46:18;;;;;;;7.47;2.70;;;;;;;13.58;58.27;98689.03;4441544;32;32525;-85
2022/04/25 01:48:46;;;;;;;5.85;2.25;;;;;;;13.60;58.05;98686.03;4441293;32;34066;-84
2022/04/25 01:51:14;;;;;;;6.22;2.30;;;;;;;13.60;58.07;98686.88;4441144;32;33313;-84
2022/04/25 01:53:41;;;;;;;5.40;2.00;;;;;;;13.72;57.56;98689.50;4441004;32;33920;-85
2022/04/25 01:56:09;;;;;;;5.97;2.00;;;;;;;13.75;58.01;98683.47;4441022;32;32360;-85
2022/04/25 01:58:40;;;;;;;5.93;2.40;;;;;;;13.79;58.82;98685.47;4441434;32;33933;-85
2022/04/25 02:01:09;;;;;;;6.85;2.10;;;;;;;13.82;58.46;98692.41;4441152;32;34086;-84
2022/04/25 02:03:40;;;;;;;5.45;1.80;;;;;;;13.90;58.39;98680.09;4441281;32;35195;-84
2022/04/25 02:06:08;;;;;;;5.78;2.00;;;;;;;13.79;59.53;98673.59;4442837;32;33710;-85
2022/04/25 02:08:37;;;;;;;5.10;1.83;;;;;;;13.82;59.74;98681.38;4439960;32;31658;-85
2022/04/25 02:11:21;;;;;;;7.30;2.35;;;;;;;14.02;58.66;98684.41;4456806;32;34427;-85
2022/04/25 02:13:51;;;;;;;6.72;2.53;;;;;;;13.95;58.64;98671.88;4457557;32;34604;-84
2022/04/25 02:16:20;;;;;;;7.12;2.50;;;;;;;13.93;58.82;98669.38;4456031;32;34250;-85
2022/04/25 02:18:49;;;;;;;7.47;2.55;;;;;;;13.91;59.15;98659.69;4455707;32;33678;-84
2022/04/25 02:21:18;;;;;;;7.90;2.67;;;;;;;13.94;59.50;98665.53;4443975;32;32183;-85
2022/04/25 02:23:47;;;;;;;6.65;2.37;;;;;;;13.81;60.03;98675.00;4456750;32;34414;-85
2022/04/25 02:26:14;;;;;;;7.95;2.67;;;;;;;13.91;59.27;98677.06;4455971;32;32414;-84
2022/04/25 02:28:42;;;;;;;7.62;2.40;;;;;;;13.90;59.13;98669.91;4441770;32;31312;-84
2022/04/25 02:31:12;;;;;;;5.45;2.33;;;;;;;13.77;59.82;98664.75;4454382;32;32304;-84
2022/04/25 02:33:41;;;;;;;5.85;2.37;;;;;;;13.95;59.24;98688.44;4454789;32;34398;-85
2022/04/25 02:36:09;;;;;;;5.62;2.28;;;;;;;14.06;57.44;98684.72;4454396;32;32437;-84
2022/04/25 02:38:37;;;;;;;5.12;1.90;;;;;;;14.04;57.34;98689.66;4454146;32;33094;-84
2022/04/25 02:41:05;;;;;;;7.07;2.03;;;;;;;13.94;57.71;98693.13;4454307;32;32372;-84
2022/04/25 02:43:35;;;;;;;5.45;2.08;;;;;;;14.12;57.11;98698.34;4456633;32;34051;-85
2022/04/25 02:46:04;;;;;;;6.32;2.35;;;;;;;13.96;57.01;98690.94;4456565;32;33330;-84
2022/04/25 02:48:33;;;;;;;8.00;2.00;;;;;;;13.89;57.40;98698.56;4456575;32;34155;-84
2022/04/25 02:51:02;;;;;;;6.55;1.92;;;;;;;13.90;58.00;98704.91;4469078;32;34476;-84
2022/04/25 02:53:30;;;;;;;6.62;2.12;;;;;;;13.92;58.04;98705.50;4456364;32;35383;-84
2022/04/25 02:55:59;;;;;;;6.40;1.83;;;;;;;13.96;57.84;98721.28;4456009;32;33913;-85
2022/04/25 02:58:26;;;;;;;3.97;1.75;;;;;;;13.82;57.34;98728.25;4456248;32;33488;-84
2022/04/25 03:00:55;;;;;;;5.82;1.90;;;;;;;13.85;56.89;98728.56;4456219;32;34604;-85
2022/04/25 03:03:26;;;;;;;8.02;2.05;;;;;;;13.75;58.29;98733.94;4456320;32;34263;-84
2022/04/25 03:05:55;;;;;;;4.57;1.70;;;;;;;14.01;57.22;98735.16;4456403;32;32888;-85
2022/04/25 03:08:23;;;;;;;8.00;1.90;;;;;;;14.06;56.61;98739.91;4456070;32;33337;-84
2022/04/25 03:10:52;;;;;;;4.45;1.95;;;;;;;13.87;56.47;98752.31;4443018;32;31983;-84
2022/04/25 03:13:26;;;;;;;7.90;1.98;;;;;;;13.86;56.77;98757.00;4456252;32;34582;-85
2022/04/25 03:15:56;;;;;;;4.72;1.65;;;;;;;13.90;57.15;98747.12;4456420;32;32300;-85
2022/04/25 03:18:24;;;;;;;6.18;1.70;;;;;;;13.90;57.05;98752.63;4455646;32;31837;-85
2022/04/25 03:20:51;;;;;;;6.95;1.60;;;;;;;13.75;56.27;98758.75;4456533;32;33722;-85
2022/04/25 03:23:20;;;;;;;3.05;1.50;;;;;;;13.89;55.40;98753.72;4456406;32;32827;-85
2022/04/25 03:25:49;;;;;;;4.75;1.62;;;;;;;13.99;55.13;98751.13;4456249;32;33875;-85
2022/04/25 03:28:17;;;;;;;4.78;1.48;;;;;;;13.92;55.52;98757.91;4456385;32;33943;-85
2022/04/25 03:30:44;;;;;;;5.60;1.52;;;;;;;13.94;57.12;98752.97;4456275;32;33802;-85
2022/04/25 03:33:15;;;;;;;5.75;1.58;;;;;;;14.09;57.27;98756.78;4443546;32;33152;-85
2022/04/25 03:35:46;;;;;;;5.05;1.73;;;;;;;14.09;56.05;98747.69;4456224;32;32763;-85
2022/04/25 03:38:17;;;;;;;5.70;1.33;;;;;;;13.88;57.47;98748.47;4456376;32;32616;-85
2022/04/25 03:40:45;;;;;;;4.87;1.58;;;;;;;13.81;58.05;98752.22;4444614;32;33060;-84
2022/04/25 03:43:17;;;;;;;3.25;1.40;;;;;;;13.91;58.05;98753.47;4456831;32;32904;-86
2022/04/25 03:45:45;;;;;;;4.03;1.12;;;;;;;13.76;58.21;98756.84;4457468;32;34598;-85
2022/04/25 03:48:13;;;;;;;4.80;1.58;;;;;;;13.78;58.58;98754.66;4443931;32;32693;-85
2022/04/25 03:50:40;;;;;;;3.62;1.25;;;;;;;13.94;58.55;98750.22;4456627;32;33040;-84
2022/04/25 03:53:10;;;;;;;4.47;1.20;;;;;;;13.88;58.30;98749.31;4456035;32;34302;-85
2022/04/25 03:58:24;;;;;;;5.60;1.25;;;;;;;13.79;58.93;98734.28;4469465;32;34070;-85
2022/04/25 04:00:52;;;;;;;3.42;1.23;;;;;;;13.60;59.69;98743.94;4456220;32;32339;-85
2022/04/25 04:03:23;;;;;;;5.93;1.77;;;;;;;13.71;59.00;98751.25;4456164;32;34314;-85
2022/04/25 04:05:53;;;;;;;4.22;1.45;;;;;;;13.68;58.89;98748.97;4443096;32;33373;-85
2022/04/25 04:08:21;;;;;;;4.55;1.23;;;;;;;13.70;59.26;98750.41;4443371;32;31916;-85
2022/04/25 04:10:51;;;;;;;5.68;1.52;;;;;;;13.82;58.87;98755.81;4455226;32;31845;-85
2022/04/25 04:13:19;;;;;;;4.00;1.40;;;;;;;13.72;59.04;98759.25;4454890;32;35546;-85
2022/04/25 04:15:47;;;;;;;1.77;1.10;;;;;;;13.76;58.90;98763.19;4456279;32;33549;-76
2022/04/25 04:18:14;;;;;;;6.07;1.40;;;;;;;13.74;58.75;98754.31;4455953;32;32274;-85
2022/04/25 04:20:42;;;;;;;4.37;1.25;;;;;;;13.77;58.21;98764.84;4455666;32;32524;-85
2022/04/25 04:23:10;;;;;;;5.53;1.37;;;;;;;13.68;58.75;98765.53;4455218;32;32986;-86
2022/04/25 04:25:38;;;;;;;3.53;1.20;;;;;;;13.76;58.73;98770.62;4455435;32;33178;-87
2022/04/25 04:28:06;;;;;;;2.80;1.02;;;;;;;13.64;59.01;98767.16;4455390;32;31892;-86
2022/04/25 04:30:34;;;;;;;3.70;1.30;;;;;;;13.65;59.04;98766.87;4456601;32;34428;-87
2022/04/25 04:33:02;;;;;;;3.15;1.10;;;;;;;13.78;58.58;98773.97;4457569;32;34717;-85
2022/04/25 04:38:16;;;;;;;3.15;1.17;;;;;;;13.89;61.10;98773.03;4460077;32;32759;-85
2022/04/25 04:40:44;;;;;;;4.57;1.23;;;;;;;13.84;59.52;98776.56;4458408;32;32361;-87
2022/04/25 04:43:12;;;;;;;4.15;1.33;;;;;;;13.98;58.87;98779.78;4459706;32;33717;-87
2022/04/25 04:45:42;;;;;;;4.10;1.30;;;;;;;13.84;59.09;98775.72;4433496;32;32291;-87
2022/04/25 04:48:11;;;;;;;2.72;1.20;;;;;;;13.92;58.83;98779.97;4430518;32;31590;-88
2022/04/25 04:50:41;;;;;;;2.67;1.00;;;;;;;14.00;58.64;98780.38;4429769;32;32307;-87
2022/04/25 04:53:09;;;;;;;3.22;1.20;;;;;;;14.01;59.13;98779.28;4429260;32;32852;-87
2022/04/25 04:55:38;;;;;;;3.90;1.60;;;;;;;14.05;59.38;98777.69;4429678;32;34643;-87
2022/04/25 04:58:07;;;;;;;4.22;1.55;;;;;;;13.96;59.96;98779.22;4442175;32;31703;-86
2022/04/25 05:00:35;;;;;;;5.87;1.67;;;;;;;14.15;59.50;98791.63;4442563;32;34730;-89
2022/04/25 05:03:03;;;;;;;5.87;1.75;;;;;;;14.13;59.51;98793.81;4429793;32;33932;-87
2022/04/25 05:05:32;;;;;;;6.43;1.95;;;;;;;14.14;58.62;98792.72;4429624;32;33367;-86
2022/04/25 05:08:02;;;;;;;4.97;1.77;;;;;;;14.18;58.19;98798.56;4442066;32;34229;-85
2022/04/25 05:10:29;;;;;;;5.37;1.80;;;;;;;14.22;63.25;98790.63;4429897;32;32232;-84
2022/04/25 05:12:59;;;;;;;5.60;1.80;;;;;;;14.28;58.75;98792.38;4457022;32;34597;-80
2022/04/25 05:15:27;;;;;;;4.50;1.95;;;;;;;14.52;57.30;98788.28;4455601;32;33301;-85
2022/04/25 05:17:59;;;;;;;6.03;2.10;;;;;;;14.44;56.74;98802.53;4440051;32;34360;-85
2022/04/25 05:20:29;;;;;;;3.72;1.45;;;;;;;14.57;56.33;98795.81;4452447;32;32982;-80
2022/04/25 05:22:57;;;;;;;7.07;1.50;;;;;;;14.58;55.78;98798.31;4428273;32;33645;-76
2022/04/25 05:25:25;;;;;;;5.70;2.65;;;;;;;14.63;56.99;98798.38;4441083;32;33290;-83
2022/04/25 05:27:56;;;;;;;4.62;1.83;;;;;;;14.68;56.97;98806.72;4441715;32;33810;-83
2022/04/25 05:30:28;;;;;;;4.82;1.70;;;;;;;14.68;56.37;98797.59;4456650;32;33974;-83
2022/04/25 05:32:57;;;;;;;5.45;1.80;;;;;;;14.69;55.94;98804.78;4442085;32;35140;-84
2022/04/25 05:35:29;;;;;;;3.55;1.60;;;;;;;14.65;55.95;98803.63;4445615;32;33227;-83
2022/04/25 05:38:02;;;;;;;8.00;1.92;;;;;;;14.61;56.42;98811.59;4444775;32;34004;-83
2022/04/25 05:40:30;;;;;;;4.75;1.65;;;;;;;14.58;55.86;98808.50;4443390;32;33572;-85
2022/04/25 05:43:03;;;;;;;4.25;1.40;;;;;;;14.35;56.85;98810.38;4441418;32;34945;-82
2022/04/25 05:45:37;;;;;;;2.72;1.35;;;;;;;14.63;55.91;98801.12;4432543;32;32514;-84
2022/04/25 05:51:58;;;;;;;3.65;1.48;;;;;;;14.48;56.55;98804.53;4446384;32;33706;-79
2022/04/25 05:53:44;;;;;;;3.08;1.17;;;;;;;14.69;56.02;98816.69;4445995;32;34090;-84
2022/04/25 05:56:13;;;;;;;5.40;1.37;;;;;;;14.59;56.57;98822.06;4444158;32;33367;-84
2022/04/25 05:58:46;;;;;;;4.43;1.40;;;;;;;14.80;55.66;98818.47;4444683;32;31732;-85
2022/04/25 06:01:17;;;;;;;4.55;1.60;;;;;;;15.01;55.48;98807.62;4445181;32;33729;-82
2022/04/25 06:03:45;;;;;;;4.62;1.45;;;;;;;15.12;55.27;98801.97;4449342;32;36013;-85
2022/04/25 06:06:14;;;;;;;4.18;1.55;;;;;;;15.26;54.76;98805.16;4450561;32;34650;-84
2022/04/25 06:08:44;;;;;;;3.90;1.45;;;;;;;15.88;52.95;98804.63;4447841;32;34124;-84
2022/04/25 06:11:15;;;;;;;3.12;1.37;;;;;;;15.93;52.54;98799.13;4451811;32;32376;-85
2022/04/25 06:13:47;;;;;;;5.45;1.60;;;;;;;15.82;52.51;98808.44;4453076;32;34614;-84
2022/04/25 06:16:20;;;;;;;3.78;1.35;;;;;;;15.95;52.32;98802.47;4449246;32;33967;-85
2022/04/25 06:18:48;;;;;;;3.47;1.40;;;;;;;16.18;51.83;98801.22;4449440;32;34003;-84
2022/04/25 06:21:16;;;;;;;5.35;1.35;;;;;;;16.26;51.66;98797.94;4452100;32;33750;-84
2022/04/25 06:23:44;;;;;;;4.07;1.00;;;;;;;16.46;50.74;98797.22;4439464;32;33312;-83
2022/04/25 06:26:12;;;;;;;4.10;1.02;;;;;;;16.39;51.81;98802.16;4452017;32;32596;-83
2022/04/25 06:28:41;;;;;;;2.72;1.10;;;;;;;16.70;50.95;98803.19;4452026;32;33835;-85
2022/04/25 06:31:10;;;;;;;4.72;1.25;;;;;;;16.77;50.03;98796.31;4448557;32;33251;-85
2022/04/25 06:33:41;;;;;;;4.03;1.30;;;;;;;16.66;50.15;98802.06;4441231;32;34394;-85
2022/04/25 06:36:10;;;;;;;3.33;1.37;;;;;;;16.71;49.71;98797.37;4434205;32;32643;-84
2022/04/25 06:38:38;;;;;;;3.20;1.40;;;;;;;17.03;49.93;98799.13;4440177;32;32919;-85
2022/04/25 06:41:16;;;;;;;4.35;1.27;;;;;;;17.25;48.49;98807.25;4425209;32;34014;-83
2022/04/25 06:43:45;;;;;;;3.67;1.30;;;;;;;17.67;50.11;98812.59;4450630;32;34410;-83
2022/04/25 06:46:14;;;;;;;2.42;0.80;;;;;;;17.65;46.98;98810.09;4461787;32;34800;-84
2022/04/25 06:49:19;;;;;;;2.62;0.77;;;;;;;18.00;48.97;98812.03;4451256;32;33435;-85
2022/04/25 06:51:33;;;;;;;3.03;1.10;;;;;;;18.20;45.99;98816.72;4463611;32;34328;-84
2022/04/25 06:54:01;;;;;;;3.47;1.10;;;;;;;18.04;46.33;98815.09;4448041;32;32973;-84
2022/04/25 06:56:31;;;;;;;3.03;1.10;;;;;;;18.02;46.53;98817.31;4448965;32;33870;-84
2022/04/25 06:58:59;;;;;;;2.50;0.90;;;;;;;18.04;46.72;98823.41;4462203;32;33694;-84
2022/04/25 07:01:30;;;;;;;2.78;1.20;;;;;;;18.09;46.56;98828.97;4451846;32;32235;-84
2022/04/25 07:04:01;;;;;;;5.03;1.65;;;;;;;17.93;47.27;98825.38;4449989;32;33867;-84
2022/04/25 07:06:29;;;;;;;5.85;1.05;;;;;;;18.07;46.55;98828.41;4450813;32;34006;-83
2022/04/25 07:08:57;;;;;;;2.58;1.27;;;;;;;18.30;46.62;98832.53;4451574;32;33986;-77
2022/04/25 07:11:25;;;;;;;5.90;1.83;;;;;;;18.59;45.55;98835.53;4446989;32;33925;-83
2022/04/25 07:13:58;;;;;;;6.03;1.48;;;;;;;18.92;44.21;98834.87;4449403;32;34005;-84
2022/04/25 07:16:27;;;;;;;2.62;0.90;;;;;;;18.64;44.57;98841.94;4449933;32;34835;-85
2022/04/25 07:19:18;;;;;;;2.60;1.10;;;;;;;18.79;43.33;98834.66;4451900;32;32686;-84
2022/04/25 07:29:10;;;;;;;2.95;1.15;;;;;;;18.91;44.40;98840.72;4461754;32;32451;-83
2022/04/25 07:31:45;;;;;;;3.47;1.50;;;;;;;19.36;42.71;98828.53;4457868;32;33159;-86
2022/04/25 07:34:42;;;;;;;3.22;1.60;;;;;;;19.29;43.98;98825.25;4448380;32;34366;-85
2022/04/25 07:37:39;;;;;;;4.40;1.52;;;;;;;19.11;42.71;98832.28;4449315;32;33001;-86
2022/04/25 07:40:22;;;;;;;3.00;1.02;;;;;;;19.22;42.71;98830.28;4453924;32;34286;-85
2022/04/25 07:43:32;;;;;;;1.80;1.00;;;;;;;18.78;43.76;98836.63;4452546;32;32394;-85
2022/04/25 07:46:30;;;;;;;4.57;1.30;;;;;;;18.99;44.43;98823.44;4455294;32;34500;-85
2022/04/25 07:49:25;;;;;;;3.35;1.40;;;;;;;19.29;45.71;98841.94;4454544;32;34728;-85
2022/04/25 07:52:22;;;;;;;6.93;1.48;;;;;;;19.60;44.38;98845.38;4448832;32;33282;-85
2022/04/25 07:55:20;;;;;;;4.28;1.35;;;;;;;19.51;42.91;98850.72;4452523;32;32817;-86
2022/04/25 07:58:16;;;;;;;48.10;32.03;;;;;;;19.06;43.30;98852.63;4445410;32;33127;-86
2022/04/25 08:01:21;;;;;;;12.45;7.18;;;;;;;19.30;43.20;98852.78;4445256;32;34629;-86
2022/04/25 08:04:07;;;;;;;3.72;1.67;;;;;;;19.24;42.04;98842.78;4443790;32;33482;-86
2022/04/25 08:06:57;;;;;;;3.45;1.30;;;;;;;19.08;42.95;98850.37;4443682;32;32929;-86
2022/04/25 08:09:53;;;;;;;4.28;1.87;;;;;;;19.17;43.38;98844.22;4443501;32;34174;-87
2022/04/25 08:18:56;;;;;;;4.35;1.60;;;;;;;19.98;41.63;98841.75;4459828;32;33438;-87
2022/04/25 08:21:55;;;;;;;3.40;1.25;;;;;;;20.07;41.13;98839.19;4442382;32;33658;-86
2022/04/25 08:24:48;;;;;;;2.30;1.00;;;;;;;19.58;39.77;98853.19;4453700;32;34914;-87
2022/04/25 08:27:39;;;;;;;3.15;0.90;;;;;;;18.56;40.44;98848.03;4454929;32;34457;-87
2022/04/25 08:30:47;;;;;;;3.22;1.02;;;;;;;19.07;39.57;98859.00;4453658;32;33249;-87
2022/04/25 08:33:39;;;;;;;6.60;3.80;;;;;;;19.21;40.51;98854.50;4428932;32;32291;-86
2022/04/25 08:36:35;;;;;;;6.33;3.33;;;;;;;19.47;40.00;98857.16;4445666;32;35185;-87
2022/04/25 08:39:26;;;;;;;5.80;2.37;;;;;;;19.32;41.01;98866.41;4442842;32;33344;-87
2022/04/25 08:42:10;;;;;;;3.17;1.27;;;;;;;19.79;40.94;98863.06;4417594;32;32628;-86
2022/04/25 08:45:27;;;;;;;4.80;1.37;;;;;;;19.58;40.19;98865.16;4452199;32;34099;-87
2022/04/25 08:48:25;;;;;;;3.22;1.62;;;;;;;19.33;39.97;98879.19;4449114;32;33108;-87
2022/04/25 08:51:19;;;;;;;2.72;1.20;;;;;;;19.83;39.97;98866.94;4469234;32;34824;-87
2022/04/25 08:54:21;;;;;;;3.47;1.52;;;;;;;19.68;40.86;98875.41;4461996;32;34099;-86
2022/04/25 08:56:55;;;;;;;2.22;1.27;;;;;;;19.71;40.09;98875.66;4447973;32;33189;-88
2022/04/25 08:59:23;;;;;;;3.00;1.40;;;;;;;20.02;39.59;98870.69;4437428;32;33161;-88
2022/04/25 09:01:54;;;;;;;6.25;1.90;;;;;;;20.22;39.96;98869.66;4431007;32;33803;-87
2022/04/25 09:04:42;;;;;;;2.00;1.10;;;;;;;20.09;38.95;98877.88;4457509;32;33288;-87
2022/04/25 09:07:33;;;;;;;2.22;1.10;;;;;;;20.55;38.22;98867.16;4469107;32;33655;-87
2022/04/25 09:10:25;;;;;;;1.25;0.80;;;;;;;20.58;37.48;98872.16;4457765;32;34849;-86
2022/04/25 09:13:16;;;;;;;1.15;0.70;;;;;;;20.94;36.83;98879.00;4456721;32;33663;-88
2022/04/25 09:16:10;;;;;;;2.00;0.93;;;;;;;21.26;36.38;98874.75;4468356;32;33762;-86
2022/04/25 09:19:05;;;;;;;5.07;1.40;;;;;;;21.02;36.81;98895.06;4452176;32;33283;-87
2022/04/25 09:22:03;;;;;;;3.40;1.10;;;;;;;20.17;37.87;98885.59;4449826;32;34038;-88
2022/04/25 09:25:17;;;;;;;2.42;1.20;;;;;;;20.82;36.75;98897.25;4451551;32;32489;-87
2022/04/25 09:28:33;;;;;;;3.53;1.15;;;;;;;20.66;36.41;98886.28;4440079;32;31953;-87
2022/04/25 09:31:25;;;;;;;1.55;0.80;;;;;;;21.21;36.44;98885.94;4452865;32;33977;-86
2022/04/25 09:34:18;;;;;;;4.30;1.10;;;;;;;;;;4449748;32;33966;-87
2022/04/25 09:37:24;;;;;;;3.35;0.60;;;;;;;20.96;36.24;98903.81;4463659;32;34514;-88
2022/04/25 09:40:16;;;;;;;1.50;0.68;;;;;;;21.08;35.18;98904.22;4451415;32;32376;-87
2022/04/25 09:43:38;;;;;;;2.42;0.95;;;;;;;21.36;35.46;98903.34;4451256;32;33927;-87
2022/04/25 09:46:35;;;;;;;4.80;0.95;;;;;;;20.95;35.66;98902.13;4459737;32;35054;-86
2022/04/25 09:49:37;;;;;;;2.12;1.08;;;;;;;20.69;35.82;98899.66;4462698;32;33521;-86
2022/04/25 09:52:31;;;;;;;3.35;1.00;;;;;;;20.48;37.26;98906.53;4450211;32;33313;-87
2022/04/25 09:55:31;;;;;;;3.20;1.15;;;;;;;20.98;36.36;98915.50;4462365;32;32603;-87
2022/04/25 09:58:28;;;;;;;5.20;3.47;;;;;;;21.27;36.01;98918.28;4437328;32;32996;-88
2022/04/25 10:01:22;;;;;;;3.50;1.30;;;;;;;20.87;35.79;98913.94;4450649;32;34829;-88
2022/04/25 10:04:30;;;;;;;5.45;3.08;;;;;;;21.41;35.37;98913.63;4458800;32;33705;-87
2022/04/25 10:07:19;;;;;;;2.80;1.25;;;;;;;21.76;34.82;98914.25;4447272;32;32434;-87
2022/04/25 10:10:24;;;;;;;2.95;1.37;;;;;;;21.46;34.19;98929.44;4452974;32;34434;-87
2022/04/25 10:13:18;;;;;;;2.33;0.98;;;;;;;21.09;35.95;98922.62;4448909;32;32878;-87
2022/04/25 10:16:09;;;;;;;2.25;0.85;;;;;;;21.69;35.37;98909.88;4448105;32;33118;-87
2022/04/25 10:19:06;;;;;;;1.58;0.90;;;;;;;22.25;34.46;98917.41;4456506;32;33214;-87
2022/04/25 10:22:02;;;;;;;3.78;1.40;;;;;;;21.75;33.21;98935.75;4437854;32;34143;-87
2022/04/25 10:24:39;;;;;;;2.40;0.73;;;;;;;21.82;34.64;98925.06;4463046;32;33142;-85
2022/04/25 10:27:11;;;;;;;2.45;1.05;;;;;;;22.47;34.43;98918.75;4450764;32;32784;-86
2022/04/25 10:29:59;;;;;;;3.45;0.95;;;;;;;22.34;33.30;98928.75;4461398;32;35421;-87
2022/04/25 10:32:51;;;;;;;4.43;1.02;;;;;;;22.92;33.25;98922.69;4464536;32;33948;-87
2022/04/25 10:35:54;;;;;;;2.37;0.90;;;;;;;23.03;31.68;98914.94;4452762;32;32797;-87
2022/04/25 10:38:55;;;;;;;2.25;0.90;;;;;;;22.95;32.16;98916.47;4443905;32;31947;-88
2022/04/25 10:45:02;;;;;;;2.60;1.20;;;;;;;21.93;33.80;98936.91;4453121;32;32732;-85
2022/04/25 10:48:08;;;;;;;4.82;1.20;;;;;;;22.43;33.32;98935.28;4438487;32;33073;-86
2022/04/25 10:51:18;;;;;;;1.40;0.80;;;;;;;22.26;33.56;98941.44;4450229;32;33321;-85
2022/04/25 10:54:36;;;;;;;4.00;1.20;;;;;;;21.75;34.08;98951.69;4451570;32;33623;-86
2022/04/25 10:57:34;;;;;;;3.45;1.55;;;;;;;21.42;33.69;98950.75;4459839;32;34290;-85
2022/04/25 11:00:58;;;;;;;3.03;1.15;;;;;;;21.03;35.07;98954.50;4448341;32;32910;-86
2022/04/25 11:03:31;;;;;;;3.05;1.05;;;;;;;21.48;34.28;98957.91;4448240;32;31792;-86
2022/04/25 11:06:05;;;;;;;5.20;1.33;;;;;;;21.18;34.40;98945.97;4434369;32;31874;-76
2022/04/25 11:08:34;;;;;;;1.95;1.00;;;;;;;21.35;34.66;98954.72;4445061;32;33694;-85
2022/04/25 11:11:18;;;;;;;2.20;0.95;;;;;;;21.49;34.47;98956.78;4451750;32;33340;-84
2022/04/25 11:13:49;;;;;;;3.37;1.15;;;;;;;21.73;34.84;98957.56;4444215;32;33994;-86
2022/04/25 11:16:26;;;;;;;3.12;1.20;;;;;;;22.38;33.34;98954.94;4441951;32;32285;-86
2022/04/25 11:19:21;;;;;;;2.47;1.00;;;;;;;21.15;33.86;98968.88;4428680;32;32991;-87
2022/04/25 11:22:04;;;;;;;7.93;1.58;;;;;;;21.71;34.35;98971.00;4444067;32;34615;-81
2022/04/25 11:24:42;;;;;;;4.30;1.27;;;;;;;21.33;34.34;98970.94;4446235;32;33644;-86
2022/04/25 11:27:14;;;;;;;1.73;0.80;;;;;;;21.57;34.82;98973.69;4441596;32;32195;-85
2022/04/25 11:29:45;;;;;;;1.83;0.90;;;;;;;21.57;34.10;98978.44;4455122;32;35052;-87
2022/04/25 11:32:25;;;;;;;1.65;0.90;;;;;;;20.95;34.90;98983.03;4428598;32;32292;-84
2022/04/25 11:34:58;;;;;;;1.95;1.00;;;;;;;21.07;35.13;98979.84;4441266;32;33289;-85
2022/04/25 11:37:30;;;;;;;3.00;1.23;;;;;;;21.34;34.87;98974.56;4441208;32;34514;-84
2022/04/25 11:40:04;;;;;;;2.53;1.00;;;;;;;21.02;35.49;98984.34;4440118;32;33834;-84
2022/04/25 11:42:35;;;;;;;7.32;1.08;;;;;;;19.97;36.34;98998.84;4431956;32;32344;-85
2022/04/25 11:45:07;;;;;;;2.35;0.70;;;;;;;20.82;35.54;98994.87;4430735;32;33753;-85
2022/04/25 11:47:37;;;;;;;5.57;1.00;;;;;;;20.91;34.23;98993.13;4442072;32;34494;-85
2022/04/25 11:50:07;;;;;;;1.55;0.70;;;;;;;20.86;34.50;99007.94;4443041;32;34588;-85
2022/04/25 11:52:54;;;;;;;4.68;0.62;;;;;;;21.10;33.97;99007.16;4442442;32;34142;-85
2022/04/25 11:55:35;;;;;;;1.77;0.80;;;;;;;21.43;34.70;99002.66;4434650;32;32743;-86
2022/04/25 11:58:04;;;;;;;2.58;0.80;;;;;;;21.58;33.44;99003.28;4450967;32;33675;-85
2022/04/25 12:00:34;;;;;;;2.60;0.90;;;;;;;21.77;34.25;99006.12;4446735;32;34951;-85
2022/04/25 12:03:02;;;;;;;1.23;0.77;;;;;;;22.13;34.54;99003.69;4447931;32;34459;-83
2022/04/25 12:05:32;;;;;;;2.22;0.70;;;;;;;22.37;33.25;99003.63;4435544;32;32715;-85
2022/04/25 12:16:28;;;;;;;8.43;2.70;;;;;;;21.47;32.97;99009.28;4447420;32;32445;-85
2022/04/25 12:19:00;;;;;;;4.55;1.37;;;;;;;21.37;33.30;99008.31;4450792;32;33964;-86
2022/04/25 12:21:34;;;;;;;4.47;0.80;;;;;;;21.72;32.31;99014.56;4440808;32;34619;-86
2022/04/25 12:24:02;;;;;;;4.12;1.00;;;;;;;21.59;31.56;99012.50;4445187;32;34014;-85
2022/04/25 12:26:34;;;;;;;3.65;0.70;;;;;;;21.17;32.23;99014.06;4448032;32;32419;-85
2022/04/25 12:29:10;;;;;;;3.15;0.90;;;;;;;21.41;32.40;99013.28;4447447;32;33839;-85
2022/04/25 12:31:48;;;;;;;11.20;1.73;;;;;;;21.16;32.95;99009.63;4447515;32;35920;-85
2022/04/25 12:34:16;;;;;;;;;;;;;;;21.29;32.64;99002.53;4446784;32;33942;-85
2022/04/25 12:37:16;;;;;;;6.12;1.62;;;;;;;21.53;33.01;99008.94;4446303;32;32372;-86
2022/04/25 12:40:01;;;;;;;5.72;1.67;;;;;;;20.72;33.22;99023.72;4449886;32;32808;-85
2022/04/25 12:42:46;;;;;;;5.18;1.58;;;;;;;21.19;33.18;99022.97;4461059;32;33964;-86
2022/04/25 12:45:14;;;;;;;2.45;1.10;;;;;;;21.86;32.17;99020.25;4458778;32;34509;-86
2022/04/25 12:47:43;;;;;;;3.45;0.90;;;;;;;21.94;31.65;99011.22;4446963;32;33345;-85
2022/04/25 12:50:11;;;;;;;1.02;0.50;;;;;;;22.23;31.20;99013.91;4432693;32;33019;-85
2022/04/25 12:53:08;;;;;;;1.70;0.68;;;;;;;22.38;31.15;99016.47;4449554;32;34354;-85
2022/04/25 12:55:54;;;;;;;1.62;0.70;;;;;;;21.27;30.58;99033.53;4449452;32;33915;-85
2022/04/25 12:58:25;;;;;;;0.65;0.50;;;;;;;21.80;30.92;99025.09;4442944;32;32466;-85